Latest Coastal Weather Observations for Cairns

IDQ60701

Issued at 9:55 pm EST Friday 22 August 2014 (issued every 10 minutes, with the page automatically refreshed every 10 minutes)

About coastal observations | Map of coastal stations | Coastal observations for QLD | Marine services | Other Formats
Station Details ID: 031011 Name: CAIRNS AERO Lat: -16.87 Lon: 145.75 Height: 2.22 m
Data from the previous 72 hours. | See also: Recent months at Cairns
Date/Time
EST
Temp

°C
Wind Pressure Rain
since 9am
mm
Weather Cloud Vis
km
Sea
Height
m
Swell
Dir
 
Speed
knots
Gust
knots
hPa Trend Height
m
Period
s
Dir
22/09:30pm 21.1 SSE 8 12 1018.2 - 0.0 - Mostly clear 10 - - - -
22/09:00pm 20.9 SSE 8 13 1017.9 - 0.0 - Mostly clear 10 - - - -
22/08:30pm 21.1 SSE 9 14 1017.9 - 0.0 - Mostly clear 10 - - - -
22/08:00pm 21.4 S 9 14 1017.8 - 0.0 - Mostly clear 10 - - - -
22/07:30pm 21.6 SSE 11 16 1017.5 - 0.0 - Mostly clear 10 - - - -
22/07:00pm 21.8 SSE 11 16 1017.1 - 0.0 - Mostly clear 10 - - - -
22/06:30pm 21.9 SSE 12 17 1016.7 - 0.0 - Mostly clear 10 - - - -
22/06:00pm 22.2 SSE 14 18 1016.2 - 0.0 - Cloudy 10 - - - -
22/05:30pm 23.3 ESE 12 16 1016.1 - 0.0 - Mostly clear 10 - - - -
22/05:00pm 24.0 SE 14 17 1015.9 - 0.0 - Mostly clear 10 - - - -
22/04:30pm 25.0 SE 15 18 1015.7 - 0.0 - Mostly clear 10 - - - -
22/04:00pm 25.5 ESE 15 18 1015.5 - 0.0 - Mostly clear 10 - - - -
22/03:30pm 25.9 ESE 15 17 1015.4 - 0.0 - Mostly clear 10 - - - -
22/03:00pm 26.3 ESE 14 17 1015.3 F 0.0 Fine Mostly clear 30 - - - -
22/02:30pm 26.5 SE 14 18 1015.4 - 0.0 - Mostly clear 10 - - - -
22/02:00pm 26.7 ESE 14 18 1015.7 - 0.0 - Mostly clear 10 - - - -
22/01:30pm 26.8 ESE 14 18 1016.2 - 0.0 - Mostly clear 10 - - - -
22/01:00pm 26.6 ESE 13 17 1016.7 - 0.0 - Mostly clear 10 - - - -
22/12:30pm 26.5 SE 13 15 1017.0 - 0.0 - Mostly clear 10 - - - -
22/12:00pm 26.9 SE 10 15 1017.5 - 0.0 - Mostly clear 10 - - - -
22/11:30am 26.7 ESE 11 15 1018.1 - 0.0 - Mostly clear 10 - - - -
22/11:00am 26.0 SE 11 15 1018.5 - 0.0 - Mostly clear 10 - - - -
22/10:30am 25.5 SSE 10 15 1018.9 - 0.0 - Mostly clear 10 - - - -
22/10:00am 24.6 SSE 10 16 1019.3 - 0.0 - Mostly clear 10 - - - -
22/09:30am 24.2 SSE 9 15 1019.2 - 0.0 - Mostly clear 10 - - - -
22/09:00am 23.5 S 8 11 1018.9 R 0.0 Fine Mostly clear 30 - - - -
22/08:30am 22.8 S 8 14 1018.7 - 0.0 - Mostly clear 10 - - - -
22/08:00am 22.0 S 7 10 1018.4 - 0.0 - Mostly clear 10 - - - -
22/07:30am 19.1 SE 11 13 1018.2 - 0.0 - Mostly clear 10 - - - -
22/07:00am 17.9 SE 10 12 1017.7 - 0.0 - Mostly clear 10 - - - -
22/06:30am 17.8 SE 6 12 1017.5 - 0.0 - Mostly clear 10 - - - -
22/06:00am 18.3 SE 7 10 1017.1 - 0.0 - Cloudy 10 - - - -
22/05:30am 18.2 ESE 8 9 1016.9 - 0.0 - Mostly clear 10 - - - -
22/05:00am 18.2 SE 10 13 1016.6 - 0.0 - Mostly clear 10 - - - -
22/04:30am 18.1 SSE 7 10 1016.3 - 0.0 - Mostly clear 10 - - - -
22/04:00am 18.0 SE 7 9 1016.3 - 0.0 - Mostly clear 10 - - - -
22/03:30am 18.2 SE 10 12 1016.5 - 0.0 - Mostly clear 10 - - - -
22/03:00am 18.4 SE 9 10 1016.5 - 0.0 - Cloudy 10 - - - -
22/02:30am 18.8 SE 8 9 1016.7 - 0.0 - Mostly clear 10 - - - -
22/02:00am 18.7 SE 6 7 1017.0 - 0.0 - Mostly clear 10 - - - -
22/01:30am 19.1 SE 5 7 1017.2 - 0.0 - Mostly clear 10 - - - -
22/01:00am 19.1 SE 9 10 1017.5 - 0.0 - Mostly clear 10 - - - -
22/12:30am 19.0 SE 9 10 1017.7 - 0.0 - Mostly clear 10 - - - -
22/12:00am 19.6 SE 7 7 1017.8 - 0.0 - Cloudy 50 - - - -
 
Date/Time
EST
Temp

°C
Wind Pressure Rain
since 9am
mm
Weather Cloud Vis
km
Sea
Height
m
Swell
Dir
 
Speed
knots
Gust
knots
hPa Trend Height
m
Period
s
Dir
21/11:30pm 20.9 S 5 9 1018.0 - 0.0 - Mostly clear 10 - - - -
21/11:00pm 19.7 SE 6 8 1017.9 - 0.0 - Mostly clear 10 - - - -
21/10:30pm 18.9 SE 6 8 1017.9 - 0.0 - Mostly clear 10 - - - -
21/10:00pm 20.4 S 7 10 1017.8 - 0.0 - Mostly clear 10 - - - -
21/09:30pm 20.6 S 6 9 1017.8 - 0.0 - Mostly clear 10 - - - -
21/09:00pm 20.6 S 6 9 1017.6 - 0.0 - Mostly clear 10 - - - -
21/08:30pm 19.9 SE 5 6 1017.6 - 0.0 - Mostly clear 10 - - - -
21/08:00pm 20.5 SSE 6 7 1017.3 - 0.0 - Mostly clear 10 - - - -
21/07:30pm 20.7 SSE 6 9 1017.0 - 0.0 - Mostly clear 10 - - - -
21/07:00pm 20.6 SSE 7 7 1016.7 - 0.0 - Mostly clear 10 - - - -
21/06:30pm 21.7 SSE 9 14 1016.2 - 0.0 - Mostly clear 10 - - - -
21/06:00pm 22.0 SE 10 15 1015.8 - 0.0 - Cloudy 10 - - - -
21/05:30pm 23.0 ESE 11 14 1015.4 - 0.0 - Mostly clear 10 - - - -
21/05:00pm 24.1 ESE 12 16 1015.1 - 0.0 - Mostly clear 10 - - - -
21/04:30pm 24.7 ESE 12 16 1014.9 - 0.0 - Mostly clear 10 - - - -
21/04:00pm 25.2 ESE 12 17 1014.6 - 0.0 - Mostly clear 10 - - - -
21/03:30pm 25.3 SE 10 15 1014.5 - 0.0 - Mostly clear 10 - - - -
21/03:00pm 25.3 SSE 9 14 1014.6 S 0.0 Fine Partly cloudy 30 - - - -
21/02:30pm 25.9 SSE 9 13 1014.9 - 0.0 - Partly cloudy 10 - - - -
21/02:00pm 25.3 S 6 10 1015.3 - 0.0 - Mostly clear 10 - - - -
21/01:30pm 24.2 ESE 8 11 1015.7 - 0.0 - Mostly clear 10 - - - -
21/01:00pm 24.6 SE 9 12 1016.0 - 0.0 - Mostly clear 10 - - - -
21/12:30pm 24.3 ESE 10 15 1016.3 - 0.0 - Mostly clear 10 - - - -
21/12:00pm 24.4 ESE 11 15 1016.7 F 0.0 Fine Mostly cloudy 30 - - - -
21/11:30am 24.7 ESE 10 13 1017.2 - 0.0 - Mostly clear 10 - - - -
21/11:00am 24.5 E 7 12 1017.7 - 0.0 - Mostly clear 10 - - - -
21/10:30am 24.9 ESE 8 11 1017.8 - 0.0 - Partly cloudy 10 - - - -
21/10:00am 24.6 SSE 7 10 1018.1 - 0.0 - Mostly clear 10 - - - -
21/09:30am 23.6 SSE 7 11 1018.2 - 0.0 - Mostly clear 10 - - - -
21/09:00am 23.5 SSE 8 10 1017.8 F 0.0 Fine Mostly clear 30 - - - -
21/08:30am 23.0 S 8 10 1017.8 - 0.0 - Mostly clear 10 - - - -
21/08:00am 22.1 S 7 10 1017.6 - 0.0 - Mostly clear 10 - - - -
21/07:30am 21.6 S 6 9 1017.2 - 0.0 - Mostly clear 10 - - - -
21/07:00am 19.7 SE 5 7 1016.9 - 0.0 - Mostly clear 10 - - - -
21/06:30am 18.7 NNW 1 4 1016.8 - 0.0 - Mostly clear 10 - - - -
21/06:00am 19.1 SSE 4 6 1016.3 R 0.0 Fine Mostly cloudy 30 - - - -
21/05:30am 18.2 CALM 0 0 1016.2 - 0.0 - Mostly clear 10 - - - -
21/05:00am 18.0 W 4 5 1015.9 - 0.0 - Mostly clear 10 - - - -
21/04:30am 17.8 CALM 0 4 1015.8 - 0.0 - Mostly clear 10 - - - -
21/04:00am 17.0 CALM 0 0 1015.8 - 0.0 - Mostly clear 10 - - - -
21/03:30am 16.8 CALM 0 0 1016.0 - 0.0 - Mostly clear 10 - - - -
21/03:00am 17.6 CALM 0 0 1015.9 - 0.0 - Cloudy 10 - - - -
21/02:30am 17.9 CALM 0 0 1016.4 - 0.0 - Mostly clear 10 - - - -
21/02:00am 17.7 CALM 0 0 1016.6 - 0.0 - Mostly clear 10 - - - -
21/01:30am 17.5 CALM 0 0 1016.8 - 0.0 - Mostly clear 10 - - - -
21/01:00am 17.4 CALM 0 0 1017.2 - 0.0 - Mostly clear 10 - - - -
21/12:30am 17.7 NNW 3 4 1017.7 - 0.0 - Mostly clear 10 - - - -
21/12:00am 18.3 N 1 5 1017.8 - 0.0 - Cloudy 10 - - - -
 
Date/Time
EST
Temp

°C
Wind Pressure Rain
since 9am
mm
Weather Cloud Vis
km
Sea
Height
m
Swell
Dir
 
Speed
knots
Gust
knots
hPa Trend Height
m
Period
s
Dir
20/11:30pm 18.2 CALM 0 0 1018.1 - 0.0 - Mostly clear 10 - - - -
20/11:00pm 21.1 S 5 6 1018.2 - 0.0 - Partly cloudy 10 - - - -
20/10:30pm 20.8 S 5 7 1018.2 - 0.0 - Partly cloudy 10 - - - -
20/10:00pm 20.4 S 5 8 1018.3 - 0.0 - Partly cloudy 10 - - - -
20/09:30pm 20.9 S 7 10 1018.5 - 0.0 - Mostly clear 10 - - - -
20/09:00pm 20.5 S 6 10 1018.3 - 0.0 - Cloudy 10 - - - -
20/08:30pm 20.5 S 7 11 1018.2 - 0.0 - Mostly clear 10 - - - -
20/08:00pm 20.5 S 7 10 1018.0 - 0.0 - Mostly clear 10 - - - -
20/07:30pm 20.5 S 7 11 1017.8 - 0.0 - Mostly clear 10 - - - -
20/07:00pm 20.5 SSE 6 8 1017.4 - 0.0 - Mostly clear 10 - - - -
20/06:30pm 21.0 SSE 9 15 1017.0 - 0.0 - Mostly clear 10 - - - -
20/06:00pm 21.5 SE 13 17 1016.3 - 0.0 - Cloudy 10 - - - -
20/05:30pm 22.5 SE 11 15 1016.1 - 0.0 - Partly cloudy 10 - - - -
20/05:00pm 23.6 SE 11 13 1015.7 - 0.0 - Mostly clear 10 - - - -
20/04:30pm 24.1 E 12 15 1015.2 - 0.0 - Mostly clear 10 - - - -
20/04:00pm 24.6 ESE 13 18 1015.0 - 0.0 - Mostly clear 10 - - - -
20/03:30pm 25.0 E 13 17 1014.7 - 0.0 - Mostly clear 10 - - - -
20/03:00pm 25.6 E 14 18 1014.5 S 0.0 Fine Mostly clear 30 - - - -
20/02:30pm 25.7 E 13 17 1014.6 - 0.0 - Mostly clear 10 - - - -
20/02:00pm 25.7 ENE 11 15 1014.8 - 0.0 - Mostly clear 10 - - - -
20/01:30pm 26.0 E 11 15 1015.3 - 0.0 - Mostly clear 10 - - - -
20/01:00pm 25.8 E 8 11 1015.6 - 0.0 - Mostly clear 10 - - - -
20/12:30pm 25.2 SE 8 12 1016.1 - 0.0 - Mostly clear 10 - - - -
20/12:00pm 25.2 E 8 11 1016.6 F 0.0 Fine Mostly cloudy 30 - - - -
20/11:30am 25.0 SE 6 11 1017.3 - 0.0 - Mostly clear 10 - - - -
20/11:00am 23.7 SSE 8 12 1017.8 - 0.0 - Mostly clear 10 - - - -
20/10:30am 23.5 S 8 13 1018.0 - 0.0 - Mostly clear 10 - - - -
20/10:00am 23.5 S 8 12 1018.1 - 0.0 - Mostly clear 10 - - - -
20/09:30am 22.4 S 7 10 1018.0 - 0.0 - Mostly clear 10 - - - -
20/09:00am 20.6 NW 4 5 1017.9 F 0.0 Fine Mostly cloudy 30 - - - -
20/08:30am 17.7 SSE 7 9 1017.9 - 0.0 - - 10 - - - -
20/08:00am 16.8 W 1 3 1017.9 - 0.0 - - 10 - - - -
20/07:30am 15.5 WSW 2 4 1017.7 - 0.0 - - 10 - - - -
20/07:00am 14.4 CALM 0 0 1017.4 - 0.0 - - 10 - - - -
20/06:30am 13.4 NW 1 4 1017.3 - 0.0 - - 10 - - - -
20/06:00am 14.1 W 4 5 1016.9 R 0.0 Fine Mostly cloudy 30 - - - -
20/05:30am 13.8 W 1 4 1016.7 - 0.0 - - 10 - - - -
20/05:00am 13.9 W 2 4 1016.4 - 0.0 - - 10 - - - -
20/04:30am 14.4 SW 4 6 1016.3 - 0.0 - - 10 - - - -
20/04:00am 14.6 NE 1 4 1016.2 - 0.0 - - 10 - - - -
20/03:30am 14.7 CALM 0 0 1016.1 - 0.0 - - 10 - - - -
20/03:00am 14.7 W 4 6 1016.0 - 0.0 - - 10 - - - -
20/02:30am 14.4 W 4 7 1016.4 - 0.0 - - 10 - - - -
20/02:00am 14.9 WNW 3 4 1016.8 - 0.0 - - 10 - - - -
20/01:30am 14.6 CALM 0 0 1017.0 - 0.0 - - 10 - - - -
20/01:00am 15.3 CALM 0 0 1017.2 - 0.0 - - 10 - - - -
20/12:30am 15.6 W 4 5 1017.3 - 0.0 - - 10 - - - -
20/12:00am 16.8 S 5 7 1017.3 - 0.0 - - 10 - - - -
 
Date/Time
EST
Temp

°C
Wind Pressure Rain
since 9am
mm
Weather Cloud Vis
km
Sea
Height
m
Swell
Dir
 
Speed
knots
Gust
knots
hPa Trend Height
m
Period
s
Dir
19/11:30pm 17.3 SE 7 10 1017.5 - 0.0 - - 10 - - - -
19/11:00pm 17.2 SE 4 9 1017.8 - 0.0 - - 10 - - - -
19/10:30pm 17.6 SE 7 9 1018.0 - 0.0 - - 10 - - - -
19/10:00pm 17.2 ENE 2 6 1018.1 - 0.0 - - 10 - - - -

Other Formats:

Comma delimited format used in spreadsheet applications
http://www.bom.gov.au/fwo/IDQ60701/IDQ60701.94287.axf

JavaScript Object Notation format (JSON) in row-major order
http://www.bom.gov.au/fwo/IDQ60701/IDQ60701.94287.json